Airfield :
LOGIN :

Register | Disclaimer

   EN    FR    IT 

 










Legend :    VFR   Marginal VFR   IFR   Intensive IFR   Very Intensive IFR
Visi :
Ceiling :
>= 8 km
>= 3000ft
5 to 8 km
1000 to 3000 ft
1500m to 5 km
500 to 1000 ft
800 to 1500m
200 to 500 ft
< 800m
< 200 ft
Symbols :   Thunderstorms  Fog  Heavy snow  Heavy precipitations  Wind > 20 kt
SIGMETs :     Misc.  Thunderstorms  Icing  Turbulence  Mountain Waves  Volcanic Ashes







- Airport Elevation : 81 ft
- IATA code : SCS
- Download approach charts


EGPM - Scatsta

CURRENT METAR :
  • 220720Z 27015G27KT 9999 VCSH FEW026 08/03 Q1019 TEMPO SHRA

EXPIRED METARs :
  • 220650Z 26019KT 9999 VCSH FEW026 07/03 Q1019 TEMPO SHRA
  • 220620Z 27023G34KT 9999 VCSH FEW022 07/03 Q1019 TEMPO SHRA
  • 220550Z 28025G37KT 9999 FEW016 08/03 Q1019 NOSIG
  • 220520Z 28019KT 9999 FEW016 07/05 Q1019 NOSIG
  • 220450Z 27025G35KT 9999 FEW014 08/03 Q1018 RERA TEMPO SHRA

TAF TAF EGPM
Valid from the 22 at 06:00 until the 22 at 15:00 UTC


220454Z 2206/2215 27022G34KT 9999 SCT025
PROB30
TEMPO 2206/2210 4000 +SHRA BKN012
TEMPO 2210/2215 6000 RA BKN012
BECMG 2212/2215 27032G44KT
PROB30
TEMPO 2212/2215 3000 +RA BKN008
No reported NOTAMs for that airfield.
3 SIGMETs reported for the Scottish FIR (EGPX) :
 
Severe mountain waves
EGPX SIGMET 04 VALID 220700/221000 EGRR
EGPX SCOTTISH FIR SEV MTW FCST WI N5743 W00135 - N5626 W00211 - N5637 W00525 - N5805 W00504 - N5743 W00135 FL030/150 STNR NC=
Severe turbulence
EGPX SIGMET 03 VALID 220630/221000 EGRR
EGPX SCOTTISH FIR SEV TURB FCST N OF N5730 AND W OF W00930 SFC/FL060 MOV E 30KT INTSF=
Severe mountain waves
EGPX SIGMET 01 VALID 220300/220700 EGRR
EGPX SCOTTISH FIR SEV MTW FCST WI N5743 W00135 - N5626 W00211 - N5637 W00525 - N5805 W00504 - N5743 W00135 FL030/150 STNR NC=



MET'MAP, your aeronautical weather chart ! - Copyright ORBIFLY December 2007 - Disclaimer

ORBIFLY MET'MAP TEAM :

Programming & Development : Alexandra Zaïnal
Concept & Development : Baudouin d'Aumeries
Co-Development & Prog : Marc-Olivier Méhu
Technical & hardware support : Manuel Goepfert

Contact : metmap@orbifly.com




SOURCES & CREDITS :

   NOAA